Time;durP1;ratioP1;P1;durP2;ratioP2;P2;SDS_P1;SDS_P2;PMS_P1;PMS_P2;Temp;Humidity;BMP_temperature;BMP_pressure;BME280_temperature;BME280_humidity;BME280_pressure;Samples;Min_cycle;Max_cycle;Signal;HPM_P1;HPM_P2
2023/12/25 00:00:14;;;;;;;1.75;0.70;;;10.10;99.90;;;;;;4993440;28;20033;-74
2023/12/25 00:02:43;;;;;;;1.40;0.52;;;10.10;99.90;;;;;;4993719;28;20517;-75
2023/12/25 00:05:08;;;;;;;1.17;0.35;;;10.10;99.90;;;;;;4990933;28;20022;-75
2023/12/25 00:07:34;;;;;;;1.35;0.43;;;10.00;99.90;;;;;;4995411;28;20450;-75
2023/12/25 00:09:59;;;;;;;1.02;0.50;;;10.00;99.90;;;;;;4989110;28;20034;-74
2023/12/25 00:12:25;;;;;;;1.10;0.40;;;10.00;99.90;;;;;;4992005;28;20065;-76
2023/12/25 00:14:51;;;;;;;1.88;0.68;;;10.00;99.90;;;;;;5002073;28;20027;-75
2023/12/25 00:17:16;;;;;;;0.93;0.60;;;9.90;99.90;;;;;;4990818;28;20029;-75
2023/12/25 00:19:42;;;;;;;0.73;0.43;;;9.90;99.90;;;;;;5005734;28;20031;-75
2023/12/25 00:22:10;;;;;;;0.47;0.40;;;9.90;99.90;;;;;;4993355;28;20469;-76
2023/12/25 00:24:36;;;;;;;0.65;0.30;;;9.90;99.90;;;;;;4988827;28;20030;-75
2023/12/25 00:27:02;;;;;;;1.67;0.52;;;9.90;99.90;;;;;;4989646;28;20072;-74
2023/12/25 00:29:27;;;;;;;2.30;0.32;;;9.80;99.90;;;;;;4989720;28;20030;-75
2023/12/25 00:31:53;;;;;;;2.13;0.40;;;9.80;99.90;;;;;;4989838;28;20109;-76
2023/12/25 00:34:22;;;;;;;0.77;0.40;;;9.80;99.90;;;;;;4989678;28;20029;-76
2023/12/25 00:36:47;;;;;;;1.08;0.50;;;9.80;99.90;;;;;;4986634;28;20428;-76
2023/12/25 00:39:13;;;;;;;0.90;0.40;;;9.80;99.90;;;;;;4994487;28;20500;-76
2023/12/25 00:41:39;;;;;;;0.95;0.40;;;9.80;99.90;;;;;;4989169;28;20454;-73
2023/12/25 00:44:04;;;;;;;0.70;0.35;;;9.70;99.90;;;;;;4990482;28;20370;-75
2023/12/25 00:46:36;;;;;;;4.22;0.40;;;9.70;99.90;;;;;;4989987;28;20030;-76
2023/12/25 00:49:01;;;;;;;0.77;0.30;;;9.70;99.90;;;;;;5000880;23;20173;-76
2023/12/25 00:51:27;;;;;;;1.55;0.80;;;9.70;99.90;;;;;;4991989;28;20031;-76
2023/12/25 00:53:53;;;;;;;2.83;0.55;;;9.70;99.90;;;;;;4992076;28;20023;-74
2023/12/25 00:56:19;;;;;;;0.65;0.25;;;9.70;99.90;;;;;;4990624;28;20050;-75
2023/12/25 00:58:44;;;;;;;0.98;0.40;;;9.80;99.90;;;;;;4989926;28;20417;-74
2023/12/25 01:01:10;;;;;;;1.83;0.68;;;9.80;99.90;;;;;;4973522;28;20030;-74
2023/12/25 01:03:36;;;;;;;0.30;0.30;;;9.70;99.90;;;;;;4990075;28;20030;-74
2023/12/25 01:06:03;;;;;;;2.92;0.50;;;9.70;99.90;;;;;;4992344;28;20583;-74
2023/12/25 01:08:29;;;;;;;0.98;0.35;;;9.70;99.90;;;;;;4989859;28;20018;-74
2023/12/25 01:10:54;;;;;;;0.95;0.40;;;9.70;99.90;;;;;;4989481;28;20388;-74
2023/12/25 01:13:20;;;;;;;0.63;0.30;;;9.70;99.90;;;;;;4990584;28;20426;-75
2023/12/25 01:15:46;;;;;;;0.50;0.30;;;9.70;99.90;;;;;;4990596;28;20030;-75
2023/12/25 01:18:11;;;;;;;1.23;0.40;;;9.70;99.90;;;;;;4990872;28;20052;-75
2023/12/25 01:20:40;;;;;;;0.60;0.30;;;9.70;99.90;;;;;;4989940;28;20084;-75
2023/12/25 01:23:05;;;;;;;0.77;0.40;;;9.70;99.90;;;;;;4988156;28;20037;-74
2023/12/25 01:25:40;;;;;;;0.57;0.30;;;9.80;99.90;;;;;;4988481;28;20034;-74
2023/12/25 01:28:06;;;;;;;2.80;0.40;;;9.80;99.90;;;;;;4989933;28;20069;-74
2023/12/25 01:30:31;;;;;;;0.93;0.40;;;9.70;99.90;;;;;;4988535;28;20062;-74
2023/12/25 01:32:57;;;;;;;0.70;0.40;;;9.70;99.90;;;;;;4984200;28;20019;-74
2023/12/25 01:35:22;;;;;;;1.67;0.30;;;9.80;99.90;;;;;;4992489;28;20404;-74
2023/12/25 01:37:48;;;;;;;0.73;0.50;;;9.70;99.90;;;;;;4976934;28;20025;-75
2023/12/25 01:40:16;;;;;;;0.57;0.32;;;9.70;99.90;;;;;;4996843;28;20026;-75
2023/12/25 01:42:42;;;;;;;1.98;0.50;;;9.80;99.90;;;;;;4993365;28;20385;-75
2023/12/25 01:45:10;;;;;;;1.25;0.40;;;9.80;99.90;;;;;;4993457;28;20026;-74
2023/12/25 01:47:36;;;;;;;1.08;0.40;;;9.80;99.90;;;;;;4996755;28;20026;-75
2023/12/25 01:50:03;;;;;;;0.50;0.30;;;9.80;99.90;;;;;;4994607;28;20364;-75
2023/12/25 01:52:29;;;;;;;1.25;0.50;;;9.70;99.90;;;;;;4997257;28;20014;-75
2023/12/25 01:54:57;;;;;;;0.30;0.30;;;9.80;99.90;;;;;;4997625;28;20029;-76
2023/12/25 01:57:24;;;;;;;1.48;0.30;;;9.70;99.90;;;;;;5001923;28;20022;-76
2023/12/25 01:59:50;;;;;;;1.80;0.22;;;9.70;99.90;;;;;;4999425;28;20081;-76
2023/12/25 02:02:18;;;;;;;2.60;0.40;;;9.70;99.90;;;;;;4997926;28;20030;-76
2023/12/25 02:04:44;;;;;;;0.70;0.30;;;9.70;99.90;;;;;;4990705;28;20098;-75
2023/12/25 02:07:11;;;;;;;2.47;0.30;;;9.70;99.90;;;;;;4996806;28;20052;-74
2023/12/25 02:09:36;;;;;;;1.98;0.38;;;9.60;99.90;;;;;;4997677;28;20098;-75
2023/12/25 02:12:02;;;;;;;0.93;0.30;;;9.70;99.90;;;;;;4996582;28;20042;-75
2023/12/25 02:14:28;;;;;;;0.57;0.30;;;9.70;99.90;;;;;;4996858;28;20038;-76
2023/12/25 02:16:54;;;;;;;3.08;0.90;;;9.70;99.90;;;;;;4995238;28;20030;-77
2023/12/25 02:19:38;;;;;;;0.85;0.40;;;9.70;99.90;;;;;;4985313;28;20029;-77
2023/12/25 02:22:03;;;;;;;;;;;9.60;99.90;;;;;;4996702;28;20027;-76
2023/12/25 02:24:31;;;;;;;1.00;0.50;;;9.60;99.90;;;;;;4979678;28;19906;-76
2023/12/25 02:26:56;;;;;;;1.25;0.32;;;9.70;99.90;;;;;;4997810;28;20045;-76
2023/12/25 02:29:22;;;;;;;1.42;0.40;;;9.60;99.90;;;;;;4997229;28;20026;-75
2023/12/25 02:31:48;;;;;;;1.20;0.60;;;9.60;99.90;;;;;;4997793;28;20034;-76
2023/12/25 02:34:14;;;;;;;0.98;0.20;;;9.60;99.90;;;;;;4998061;28;20022;-76
2023/12/25 02:36:40;;;;;;;2.15;0.52;;;9.60;99.90;;;;;;4997799;28;20022;-75
2023/12/25 02:39:09;;;;;;;2.50;0.70;;;9.60;99.90;;;;;;4996579;28;20033;-77
2023/12/25 02:41:34;;;;;;;1.55;0.60;;;9.60;99.90;;;;;;4994810;28;20453;-76
2023/12/25 02:44:00;;;;;;;1.35;0.45;;;9.50;99.90;;;;;;4996493;28;20030;-76
2023/12/25 02:46:25;;;;;;;0.98;0.40;;;9.60;99.90;;;;;;4997064;28;20370;-76
2023/12/25 02:48:51;;;;;;;1.75;0.40;;;9.50;99.90;;;;;;4996322;28;20038;-75
2023/12/25 02:51:16;;;;;;;0.68;0.30;;;9.50;99.90;;;;;;4996524;28;20495;-76
2023/12/25 02:53:42;;;;;;;1.65;0.40;;;9.50;99.90;;;;;;4995956;28;20033;-76
2023/12/25 02:56:07;;;;;;;2.08;0.40;;;9.50;99.90;;;;;;4995862;28;20030;-76
2023/12/25 02:58:36;;;;;;;1.35;0.43;;;9.50;99.90;;;;;;4994982;28;20026;-75
2023/12/25 03:01:02;;;;;;;0.80;0.40;;;9.50;99.90;;;;;;4992809;28;20014;-75
2023/12/25 03:03:27;;;;;;;0.50;0.30;;;9.50;99.90;;;;;;4979591;28;20029;-76
2023/12/25 03:05:53;;;;;;;0.68;0.40;;;9.50;99.90;;;;;;4996025;28;20035;-76
2023/12/25 03:08:18;;;;;;;0.95;0.32;;;9.50;99.90;;;;;;4997929;28;20030;-76
2023/12/25 03:10:44;;;;;;;1.08;0.50;;;9.50;99.90;;;;;;4997936;28;20026;-76
2023/12/25 03:13:10;;;;;;;0.90;0.40;;;9.50;99.90;;;;;;4996366;28;20030;-76
2023/12/25 03:15:35;;;;;;;0.40;0.20;;;9.40;99.90;;;;;;4958237;28;20521;-76
2023/12/25 03:18:01;;;;;;;0.40;0.30;;;9.40;99.90;;;;;;4976355;28;20023;-76
2023/12/25 03:20:27;;;;;;;1.73;0.77;;;9.40;99.90;;;;;;4976761;28;20031;-76
2023/12/25 03:22:52;;;;;;;1.52;0.40;;;9.40;99.90;;;;;;4972460;28;20023;-76
2023/12/25 03:25:18;;;;;;;0.77;0.40;;;9.40;99.90;;;;;;4961479;28;20038;-76
2023/12/25 03:27:43;;;;;;;1.17;0.30;;;9.40;99.90;;;;;;4973685;28;20027;-77
2023/12/25 03:30:09;;;;;;;0.95;0.45;;;9.40;99.90;;;;;;4976077;28;20039;-76
2023/12/25 03:32:35;;;;;;;0.93;0.40;;;9.40;99.70;;;;;;4975898;28;20490;-76
2023/12/25 03:35:01;;;;;;;0.70;0.30;;;9.40;99.80;;;;;;4975991;28;20046;-76
2023/12/25 03:37:26;;;;;;;1.17;0.52;;;9.40;99.80;;;;;;4976259;28;20023;-76
2023/12/25 03:39:52;;;;;;;1.20;0.40;;;9.40;99.80;;;;;;4974642;28;20015;-76
2023/12/25 03:42:18;;;;;;;0.70;0.35;;;9.40;99.30;;;;;;4976494;28;20042;-75
2023/12/25 03:44:44;;;;;;;0.40;0.20;;;9.30;99.90;;;;;;4961811;28;20019;-76
2023/12/25 03:47:12;;;;;;;0.68;0.22;;;9.40;99.20;;;;;;4976608;28;20082;-76
2023/12/25 03:49:38;;;;;;;0.55;0.30;;;9.40;99.20;;;;;;4975685;28;20549;-76
2023/12/25 03:52:04;;;;;;;0.47;0.30;;;9.40;99.40;;;;;;4978117;28;20138;-76
2023/12/25 03:54:29;;;;;;;0.73;0.40;;;9.30;99.40;;;;;;4973587;28;20050;-75
2023/12/25 03:56:56;;;;;;;1.05;0.35;;;9.30;99.60;;;;;;4975507;28;20046;-76
2023/12/25 03:59:21;;;;;;;2.30;0.65;;;9.30;99.10;;;;;;4974254;28;20434;-75
2023/12/25 04:01:47;;;;;;;1.08;0.50;;;9.30;99.20;;;;;;4974930;28;20035;-77
2023/12/25 04:04:12;;;;;;;0.70;0.50;;;9.30;98.90;;;;;;4975050;28;20377;-77
2023/12/25 04:06:38;;;;;;;0.82;0.40;;;9.30;98.50;;;;;;4976065;28;20081;-77
2023/12/25 04:09:04;;;;;;;0.65;0.40;;;9.30;98.90;;;;;;4973618;28;20026;-76
2023/12/25 04:11:30;;;;;;;0.60;0.40;;;9.30;98.50;;;;;;4976858;28;20122;-76
2023/12/25 04:13:56;;;;;;;0.52;0.30;;;9.30;98.00;;;;;;4974780;28;20134;-76
2023/12/25 04:16:25;;;;;;;0.73;0.40;;;9.30;98.20;;;;;;4972941;28;20058;-76
2023/12/25 04:18:53;;;;;;;1.13;0.35;;;9.30;98.60;;;;;;4972803;28;20085;-76
2023/12/25 04:21:25;;;;;;;1.05;0.30;;;9.30;98.10;;;;;;4977182;28;21272;-76
2023/12/25 04:23:52;;;;;;;0.50;0.25;;;9.30;98.00;;;;;;4972084;28;20023;-76
2023/12/25 04:26:19;;;;;;;1.65;0.30;;;9.30;98.10;;;;;;4973013;28;20062;-77
2023/12/25 04:28:45;;;;;;;1.63;0.40;;;9.30;97.40;;;;;;4973966;28;20022;-77
2023/12/25 04:31:10;;;;;;;1.75;0.90;;;9.30;97.30;;;;;;4972721;28;20086;-76
2023/12/25 04:33:36;;;;;;;0.88;0.40;;;9.30;97.40;;;;;;4973125;28;19999;-76
2023/12/25 04:36:03;;;;;;;0.73;0.35;;;9.30;97.20;;;;;;4969198;28;20100;-76
2023/12/25 04:38:28;;;;;;;1.42;0.40;;;9.30;97.00;;;;;;4968480;28;20023;-75
2023/12/25 04:40:54;;;;;;;0.45;0.40;;;9.30;96.50;;;;;;4969192;28;20039;-76
2023/12/25 04:43:19;;;;;;;2.28;0.65;;;9.30;96.70;;;;;;4969479;28;20038;-75
2023/12/25 04:45:45;;;;;;;1.40;0.20;;;9.30;96.80;;;;;;4972437;28;20027;-76
2023/12/25 04:48:11;;;;;;;1.23;0.30;;;9.30;96.30;;;;;;4954319;28;20034;-76
2023/12/25 04:50:37;;;;;;;1.08;0.60;;;9.30;96.20;;;;;;4969079;28;20030;-75
2023/12/25 04:53:03;;;;;;;0.45;0.25;;;9.30;96.30;;;;;;4971987;28;20027;-75
2023/12/25 04:55:29;;;;;;;1.63;0.40;;;9.30;96.10;;;;;;4955467;28;20110;-76
2023/12/25 04:57:54;;;;;;;0.38;0.30;;;9.30;95.70;;;;;;4971056;28;20469;-77
2023/12/25 05:00:20;;;;;;;0.70;0.30;;;9.30;96.00;;;;;;4971766;28;20493;-76
2023/12/25 05:02:46;;;;;;;0.38;0.30;;;9.30;95.80;;;;;;4970477;28;20042;-75
2023/12/25 05:05:11;;;;;;;0.35;0.25;;;9.30;95.50;;;;;;4970801;28;20026;-76
2023/12/25 05:07:37;;;;;;;0.65;0.30;;;9.30;95.60;;;;;;4973079;28;20027;-75
2023/12/25 05:10:03;;;;;;;0.68;0.30;;;9.30;96.10;;;;;;4973650;28;20049;-75
2023/12/25 05:12:28;;;;;;;0.50;0.30;;;9.30;95.20;;;;;;4972422;28;20713;-75
2023/12/25 05:14:54;;;;;;;1.98;0.57;;;9.30;95.60;;;;;;4949189;28;20027;-75
2023/12/25 05:17:20;;;;;;;0.95;0.35;;;9.30;96.10;;;;;;4971065;28;20015;-76
2023/12/25 05:19:45;;;;;;;1.58;0.50;;;9.30;95.70;;;;;;4970694;28;20059;-75
2023/12/25 05:22:12;;;;;;;0.73;0.40;;;9.20;95.70;;;;;;4974635;28;20042;-75
2023/12/25 05:24:37;;;;;;;0.40;0.40;;;9.30;95.90;;;;;;4970046;28;20035;-75
2023/12/25 05:27:03;;;;;;;0.52;0.43;;;9.20;95.70;;;;;;4970638;28;20037;-75
2023/12/25 05:29:29;;;;;;;0.65;0.40;;;9.20;95.60;;;;;;4970414;28;20442;-75
2023/12/25 05:31:54;;;;;;;0.43;0.35;;;9.20;95.50;;;;;;4971583;28;20026;-76
2023/12/25 05:34:20;;;;;;;0.80;0.25;;;9.20;95.40;;;;;;4972437;28;20023;-75
2023/12/25 05:36:45;;;;;;;1.00;0.40;;;9.20;95.80;;;;;;4971346;28;20039;-75
2023/12/25 05:39:11;;;;;;;1.77;0.90;;;9.20;95.50;;;;;;4971553;28;20030;-75
2023/12/25 05:41:37;;;;;;;0.40;0.30;;;9.10;95.30;;;;;;4969792;28;20035;-76
2023/12/25 05:44:02;;;;;;;0.82;0.50;;;9.10;95.20;;;;;;4972604;28;20070;-75
2023/12/25 05:46:28;;;;;;;0.85;0.50;;;9.10;95.90;;;;;;4973630;28;20376;-74
2023/12/25 05:48:53;;;;;;;1.38;0.50;;;9.10;95.70;;;;;;4973380;28;20034;-75
2023/12/25 05:51:19;;;;;;;1.73;0.50;;;9.10;95.40;;;;;;4973629;28;20106;-76
2023/12/25 05:53:45;;;;;;;1.17;0.50;;;9.10;95.60;;;;;;4978363;28;20494;-77
2023/12/25 05:56:10;;;;;;;1.35;0.32;;;9.00;95.20;;;;;;4972837;28;20034;-77
2023/12/25 05:58:36;;;;;;;2.92;0.60;;;9.10;95.30;;;;;;4973038;28;20035;-77
2023/12/25 06:01:06;;;;;;;0.47;0.30;;;9.00;95.80;;;;;;4973026;28;20520;-77
2023/12/25 06:03:32;;;;;;;2.25;0.30;;;9.00;94.90;;;;;;4973198;28;20030;-75
2023/12/25 06:05:58;;;;;;;0.65;0.20;;;9.00;95.00;;;;;;4974043;28;20110;-76
2023/12/25 06:08:24;;;;;;;0.47;0.35;;;9.00;95.00;;;;;;4962483;28;20510;-76
2023/12/25 06:10:50;;;;;;;0.50;0.35;;;9.00;95.00;;;;;;4960996;28;20050;-76
2023/12/25 06:13:15;;;;;;;0.68;0.40;;;9.00;94.40;;;;;;4973301;28;20030;-76
2023/12/25 06:15:41;;;;;;;2.35;0.40;;;9.00;95.10;;;;;;4972848;28;20169;-76
2023/12/25 06:18:10;;;;;;;1.27;0.50;;;9.00;95.20;;;;;;4969974;28;20031;-76
2023/12/25 06:20:35;;;;;;;2.45;0.50;;;9.00;94.70;;;;;;4968846;28;20030;-76
2023/12/25 06:23:01;;;;;;;1.02;0.22;;;8.90;94.70;;;;;;4981967;28;20035;-76
2023/12/25 06:25:26;;;;;;;1.10;0.52;;;8.90;95.00;;;;;;4976532;28;20038;-76
2023/12/25 06:27:52;;;;;;;0.68;0.40;;;8.90;94.30;;;;;;4978823;28;20114;-76
2023/12/25 06:30:18;;;;;;;0.85;0.40;;;8.90;94.50;;;;;;4976869;28;20396;-75
2023/12/25 06:32:43;;;;;;;0.60;0.20;;;8.80;95.00;;;;;;4974822;28;20096;-74
2023/12/25 06:35:09;;;;;;;1.27;0.40;;;8.80;94.70;;;;;;4973585;28;20482;-74
2023/12/25 06:37:35;;;;;;;0.38;0.30;;;8.80;94.50;;;;;;4970958;28;20060;-75
2023/12/25 06:40:00;;;;;;;0.57;0.40;;;8.80;95.10;;;;;;4976502;28;20031;-75
2023/12/25 06:42:29;;;;;;;0.77;0.50;;;8.90;94.90;;;;;;4976819;28;20369;-75
2023/12/25 06:44:55;;;;;;;1.00;0.40;;;8.80;94.90;;;;;;4976713;28;20027;-75
2023/12/25 06:47:20;;;;;;;0.40;0.30;;;8.80;94.90;;;;;;4976664;28;20489;-75
2023/12/25 06:49:46;;;;;;;1.25;0.40;;;8.70;94.80;;;;;;5006272;23;20177;-73
2023/12/25 06:52:11;;;;;;;1.70;0.60;;;8.80;95.00;;;;;;4973234;28;20030;-72
2023/12/25 06:54:37;;;;;;;1.17;0.40;;;8.70;94.70;;;;;;4992928;28;20022;-72
2023/12/25 06:57:05;;;;;;;2.95;0.40;;;8.70;94.50;;;;;;4994768;28;20030;-72
2023/12/25 06:59:34;;;;;;;1.02;0.57;;;8.70;94.60;;;;;;4995647;28;20033;-72
2023/12/25 07:02:00;;;;;;;0.77;0.40;;;8.70;94.90;;;;;;4992900;28;20041;-72
2023/12/25 07:04:25;;;;;;;0.88;0.30;;;8.70;94.60;;;;;;4991243;28;20027;-72
2023/12/25 07:06:51;;;;;;;0.60;0.30;;;8.70;95.00;;;;;;4991443;28;20034;-72
2023/12/25 07:09:16;;;;;;;1.58;0.60;;;8.70;93.80;;;;;;4993732;28;20026;-72
2023/12/25 07:11:42;;;;;;;2.38;0.70;;;8.70;93.90;;;;;;4992829;28;20556;-72
2023/12/25 07:14:11;;;;;;;1.65;0.57;;;8.70;94.20;;;;;;4989614;28;20038;-72
2023/12/25 07:16:36;;;;;;;2.55;0.60;;;8.70;93.90;;;;;;4989058;28;20030;-72
2023/12/25 07:19:02;;;;;;;1.45;0.47;;;8.70;94.00;;;;;;4996259;28;20370;-72
2023/12/25 07:21:31;;;;;;;0.77;0.40;;;8.70;93.40;;;;;;4995337;28;20085;-72
2023/12/25 07:23:58;;;;;;;1.17;0.40;;;8.70;93.60;;;;;;4995595;28;20026;-72
2023/12/25 07:26:26;;;;;;;1.20;0.63;;;8.70;93.40;;;;;;4992806;28;20022;-73
2023/12/25 07:28:52;;;;;;;0.30;0.30;;;8.80;93.50;;;;;;4992557;28;20041;-72
2023/12/25 07:31:20;;;;;;;0.63;0.40;;;8.70;93.00;;;;;;4991969;28;20396;-72
2023/12/25 07:33:46;;;;;;;1.05;0.40;;;8.70;93.20;;;;;;4989735;28;20027;-72
2023/12/25 07:36:12;;;;;;;1.33;0.60;;;8.70;92.60;;;;;;4996816;28;20656;-72
2023/12/25 07:38:38;;;;;;;0.77;0.32;;;8.70;92.60;;;;;;4994998;28;20018;-72
2023/12/25 07:41:08;;;;;;;0.90;0.40;;;8.80;92.30;;;;;;4992568;28;20031;-72
2023/12/25 07:43:35;;;;;;;0.98;0.68;;;8.80;92.50;;;;;;4994760;28;20030;-72
2023/12/25 07:46:04;;;;;;;0.80;0.40;;;8.80;92.90;;;;;;4992168;28;20022;-73
2023/12/25 07:48:30;;;;;;;1.13;0.50;;;8.80;92.70;;;;;;4993364;28;20098;-72
2023/12/25 07:50:55;;;;;;;1.23;0.40;;;8.80;92.40;;;;;;4993389;28;20492;-72
2023/12/25 07:53:21;;;;;;;1.55;0.80;;;8.80;92.70;;;;;;4990709;28;20043;-72
2023/12/25 07:55:46;;;;;;;1.15;0.50;;;8.80;92.20;;;;;;4989195;28;20034;-72
2023/12/25 07:58:14;;;;;;;2.40;0.55;;;8.80;92.30;;;;;;5006672;28;20512;-72
2023/12/25 08:00:42;;;;;;;2.67;0.50;;;8.90;92.20;;;;;;4988447;28;20038;-72
2023/12/25 08:03:12;;;;;;;1.55;0.50;;;8.90;92.10;;;;;;4989710;28;20167;-72
2023/12/25 08:05:38;;;;;;;1.40;0.60;;;8.90;92.10;;;;;;4992769;28;20029;-72
2023/12/25 08:08:07;;;;;;;0.52;0.40;;;8.90;92.20;;;;;;4993848;28;20029;-72
2023/12/25 08:10:33;;;;;;;0.73;0.40;;;9.00;92.40;;;;;;4993774;28;20034;-72
2023/12/25 08:12:59;;;;;;;1.58;0.60;;;8.90;92.00;;;;;;5004100;28;20022;-72
2023/12/25 08:15:30;;;;;;;1.33;0.43;;;9.00;92.90;;;;;;4988651;28;20288;-72
2023/12/25 08:17:59;;;;;;;0.88;0.50;;;9.00;92.10;;;;;;4992865;28;20104;-72
2023/12/25 08:20:30;;;;;;;1.00;0.63;;;9.00;91.90;;;;;;4990763;28;20088;-72
2023/12/25 08:22:56;;;;;;;1.85;0.93;;;9.00;91.90;;;;;;4993622;28;20135;-72
2023/12/25 08:25:21;;;;;;;1.88;0.40;;;9.00;92.00;;;;;;4989339;28;20070;-72
2023/12/25 08:27:47;;;;;;;2.85;0.50;;;9.00;92.00;;;;;;4995845;28;20030;-72
2023/12/25 08:30:13;;;;;;;1.98;0.60;;;9.00;91.70;;;;;;4991266;28;20058;-72
2023/12/25 08:32:39;;;;;;;2.72;0.85;;;9.10;91.90;;;;;;4989252;28;20050;-72
2023/12/25 08:35:05;;;;;;;1.20;0.60;;;9.10;92.30;;;;;;4986099;28;20497;-72
2023/12/25 08:37:30;;;;;;;1.42;0.50;;;9.10;92.20;;;;;;4996056;28;20116;-72
2023/12/25 08:39:56;;;;;;;2.28;0.70;;;9.10;92.20;;;;;;4993894;28;20052;-72
2023/12/25 08:42:21;;;;;;;1.35;0.52;;;9.20;92.30;;;;;;4993335;28;20050;-73
2023/12/25 08:44:47;;;;;;;1.00;0.57;;;9.20;92.40;;;;;;4997502;28;20021;-71
2023/12/25 08:47:14;;;;;;;0.90;0.40;;;9.20;92.10;;;;;;4995943;28;20026;-71
2023/12/25 08:49:40;;;;;;;1.27;0.55;;;9.20;92.10;;;;;;4989235;28;20454;-71
2023/12/25 08:52:06;;;;;;;0.93;0.50;;;9.20;91.90;;;;;;4990684;28;20092;-71
2023/12/25 08:54:31;;;;;;;1.70;0.80;;;9.30;92.00;;;;;;4987281;28;20027;-72
2023/12/25 08:57:00;;;;;;;1.00;0.60;;;9.30;92.10;;;;;;4989135;28;20054;-72
2023/12/25 08:59:26;;;;;;;1.38;0.60;;;9.30;92.10;;;;;;4991180;28;20030;-72
2023/12/25 09:01:51;;;;;;;0.88;0.57;;;9.30;92.30;;;;;;4994152;28;21314;-71
2023/12/25 09:04:17;;;;;;;3.25;1.83;;;9.30;92.40;;;;;;4993040;28;20030;-72
2023/12/25 09:06:43;;;;;;;3.58;1.83;;;9.40;92.20;;;;;;4990568;28;20077;-71
2023/12/25 09:09:10;;;;;;;2.33;1.40;;;9.40;92.30;;;;;;4985302;28;20030;-72
2023/12/25 09:11:46;;;;;;;4.88;2.40;;;9.40;92.60;;;;;;4990081;28;20027;-73
2023/12/25 09:14:12;;;;;;;4.28;2.90;;;9.40;92.60;;;;;;4991073;28;20026;-73
2023/12/25 09:16:37;;;;;;;7.72;4.65;;;9.40;92.70;;;;;;4991014;28;20033;-73
2023/12/25 09:19:04;;;;;;;3.33;1.90;;;9.50;92.60;;;;;;4990924;28;20480;-73
2023/12/25 09:21:36;;;;;;;1.80;0.93;;;9.50;92.60;;;;;;4991637;28;20091;-73
2023/12/25 09:24:01;;;;;;;1.45;0.65;;;9.50;92.70;;;;;;4983845;28;20030;-73
2023/12/25 09:26:27;;;;;;;1.38;0.73;;;9.50;93.40;;;;;;4990896;28;20224;-72
2023/12/25 09:28:52;;;;;;;2.40;1.00;;;9.60;93.00;;;;;;4990010;28;20049;-72
2023/12/25 09:31:18;;;;;;;2.08;0.77;;;9.60;93.00;;;;;;4990616;28;20026;-72
2023/12/25 09:33:50;;;;;;;2.40;1.42;;;9.60;93.00;;;;;;4991030;28;20105;-72
2023/12/25 09:36:15;;;;;;;6.13;1.30;;;9.60;93.30;;;;;;4986057;28;20507;-73
2023/12/25 09:38:41;;;;;;;1.15;0.70;;;9.60;93.20;;;;;;4989538;28;20030;-72
2023/12/25 09:41:09;;;;;;;2.33;0.93;;;9.60;93.60;;;;;;4989082;28;20481;-72
2023/12/25 09:43:41;;;;;;;1.27;0.80;;;9.60;94.20;;;;;;4991084;28;20552;-72
2023/12/25 09:46:12;;;;;;;1.27;0.80;;;9.60;93.00;;;;;;4985919;28;20026;-72
2023/12/25 09:48:38;;;;;;;1.60;0.70;;;9.70;93.40;;;;;;4993530;28;20106;-72
2023/12/25 09:51:05;;;;;;;1.27;0.82;;;9.70;93.30;;;;;;4988086;28;20173;-72
2023/12/25 09:53:31;;;;;;;1.38;0.60;;;9.70;93.70;;;;;;4988759;28;20030;-72
2023/12/25 09:55:59;;;;;;;3.22;0.70;;;9.70;93.70;;;;;;5003396;28;20401;-72
2023/12/25 09:58:26;;;;;;;3.42;1.33;;;9.70;93.40;;;;;;4996158;28;20066;-72
2023/12/25 10:00:53;;;;;;;2.08;1.00;;;9.70;93.30;;;;;;4991812;28;20109;-73
2023/12/25 10:03:20;;;;;;;1.35;0.70;;;9.70;93.70;;;;;;4997620;28;20030;-74
2023/12/25 10:05:46;;;;;;;1.77;0.70;;;9.70;93.70;;;;;;4993971;28;20513;-72
2023/12/25 10:08:11;;;;;;;1.50;0.80;;;9.80;94.10;;;;;;5000679;28;20037;-73
2023/12/25 10:10:37;;;;;;;1.42;0.80;;;9.80;94.20;;;;;;4994264;28;20026;-74
2023/12/25 10:13:04;;;;;;;1.85;0.90;;;9.80;94.20;;;;;;4993963;28;20029;-73
2023/12/25 10:15:30;;;;;;;1.65;0.75;;;9.80;94.40;;;;;;4992163;28;20026;-73
2023/12/25 10:18:06;;;;;;;3.38;1.23;;;9.80;94.70;;;;;;4996994;28;20018;-73
2023/12/25 10:20:32;;;;;;;2.17;0.98;;;9.90;94.60;;;;;;4997831;28;20018;-73
2023/12/25 10:23:00;;;;;;;1.88;0.85;;;9.90;94.50;;;;;;4999355;28;20075;-74
2023/12/25 10:25:29;;;;;;;1.58;0.70;;;9.90;94.50;;;;;;4995255;28;20121;-73
2023/12/25 10:28:10;;;;;;;2.25;1.00;;;9.90;94.40;;;;;;4996940;28;20046;-73
2023/12/25 10:30:36;;;;;;;2.35;0.90;;;9.90;94.80;;;;;;4993398;28;20042;-73
2023/12/25 10:33:13;;;;;;;1.95;0.90;;;9.90;94.80;;;;;;4991464;28;20027;-73
2023/12/25 10:35:39;;;;;;;1.60;0.93;;;9.90;94.60;;;;;;4989335;28;20035;-73
2023/12/25 10:38:06;;;;;;;1.30;0.80;;;9.90;94.90;;;;;;4995251;28;20481;-73
2023/12/25 10:40:41;;;;;;;0.90;0.60;;;9.90;94.60;;;;;;4999572;28;20022;-72
2023/12/25 10:43:07;;;;;;;1.77;0.75;;;9.90;95.20;;;;;;4992395;28;20472;-72
2023/12/25 10:45:33;;;;;;;2.03;0.88;;;9.90;95.00;;;;;;4992062;28;20034;-72
2023/12/25 10:48:02;;;;;;;5.03;1.98;;;9.90;95.20;;;;;;4990695;28;20520;-72
2023/12/25 10:50:33;;;;;;;3.05;1.40;;;9.90;95.30;;;;;;4986544;28;20034;-72
2023/12/25 10:53:01;;;;;;;2.00;1.17;;;9.90;95.50;;;;;;4989003;28;20030;-72
2023/12/25 10:55:38;;;;;;;2.47;1.02;;;9.90;95.80;;;;;;4993117;28;20014;-72
2023/12/25 10:58:08;;;;;;;1.58;0.70;;;10.00;95.90;;;;;;4988619;28;20030;-73
2023/12/25 11:00:40;;;;;;;1.83;0.90;;;10.00;96.10;;;;;;4991726;28;20639;-72
2023/12/25 11:03:06;;;;;;;2.65;0.88;;;10.00;96.50;;;;;;4983332;28;20054;-70
2023/12/25 11:05:31;;;;;;;3.67;1.65;;;10.00;96.40;;;;;;4982283;28;20185;-72
2023/12/25 11:08:00;;;;;;;4.25;1.55;;;10.10;96.30;;;;;;4976639;28;20022;-72
2023/12/25 11:10:29;;;;;;;2.97;1.23;;;10.10;96.50;;;;;;4986381;28;20109;-71
2023/12/25 11:12:56;;;;;;;1.95;0.70;;;10.10;96.40;;;;;;4983526;28;20022;-72
2023/12/25 11:15:22;;;;;;;3.35;1.50;;;10.20;96.30;;;;;;4990939;28;20483;-71
2023/12/25 11:17:48;;;;;;;2.00;1.00;;;10.20;96.00;;;;;;4991911;28;20022;-71
2023/12/25 11:20:13;;;;;;;4.18;1.98;;;10.20;96.20;;;;;;4990964;28;20073;-72
2023/12/25 11:22:40;;;;;;;3.35;1.23;;;10.20;96.30;;;;;;4982473;28;20704;-71
2023/12/25 11:25:17;;;;;;;2.60;1.35;;;10.30;96.30;;;;;;4986653;28;20514;-72
2023/12/25 11:27:53;;;;;;;4.00;1.60;;;10.30;95.80;;;;;;4989310;28;20428;-72
2023/12/25 11:30:22;;;;;;;3.28;1.23;;;10.40;95.80;;;;;;4992911;28;20041;-72
2023/12/25 11:32:49;;;;;;;2.20;1.13;;;10.40;95.60;;;;;;4989895;28;20042;-72
2023/12/25 11:35:23;;;;;;;3.47;1.10;;;10.40;95.60;;;;;;4992552;28;20033;-73
2023/12/25 11:37:49;;;;;;;1.63;0.80;;;10.40;96.40;;;;;;4991339;28;20022;-72
2023/12/25 11:40:15;;;;;;;1.40;0.70;;;10.40;95.90;;;;;;4986699;28;20037;-72
2023/12/25 11:42:41;;;;;;;2.20;0.68;;;10.50;95.90;;;;;;4990083;28;20034;-72
2023/12/25 11:45:10;;;;;;;2.80;0.70;;;10.50;96.30;;;;;;4988822;28;20613;-70
2023/12/25 11:47:55;;;;;;;1.83;0.65;;;10.50;96.50;;;;;;4989556;28;20018;-71
2023/12/25 11:50:21;;;;;;;1.08;0.60;;;10.50;96.30;;;;;;4991653;28;20022;-72
2023/12/25 11:52:56;;;;;;;3.47;0.85;;;10.50;96.20;;;;;;4992991;28;20095;-72
2023/12/25 11:55:24;;;;;;;1.88;0.80;;;10.60;96.60;;;;;;4989041;28;20018;-73
2023/12/25 11:57:50;;;;;;;1.17;0.65;;;10.50;96.60;;;;;;4988987;28;20022;-73
2023/12/25 12:00:25;;;;;;;2.20;0.63;;;10.60;96.90;;;;;;4987133;28;20615;-70
2023/12/25 12:02:54;;;;;;;1.85;0.82;;;10.60;97.10;;;;;;4989495;28;20076;-69
2023/12/25 12:05:19;;;;;;;1.73;0.80;;;10.60;97.00;;;;;;4990270;28;20025;-70
2023/12/25 12:07:45;;;;;;;2.17;0.90;;;10.60;97.50;;;;;;4979161;28;20520;-72
2023/12/25 12:10:12;;;;;;;3.53;1.00;;;10.70;97.40;;;;;;4995902;28;20078;-72
2023/12/25 12:12:40;;;;;;;1.23;0.70;;;10.60;97.80;;;;;;4991018;28;20027;-70
2023/12/25 12:15:07;;;;;;;2.17;0.50;;;10.70;97.90;;;;;;4991590;28;20069;-72
2023/12/25 12:17:34;;;;;;;2.47;0.75;;;10.70;98.10;;;;;;4999387;28;20113;-70
2023/12/25 12:20:00;;;;;;;3.40;0.93;;;10.70;98.60;;;;;;4994947;28;20018;-73
2023/12/25 12:22:26;;;;;;;1.52;0.60;;;10.80;98.50;;;;;;4993653;28;20826;-71
2023/12/25 12:24:52;;;;;;;0.80;0.50;;;10.80;98.90;;;;;;4997582;28;20054;-71
2023/12/25 12:27:21;;;;;;;1.05;0.57;;;10.80;98.70;;;;;;4991307;28;20547;-71
2023/12/25 12:29:50;;;;;;;2.83;0.90;;;10.90;99.00;;;;;;4987448;28;20393;-72
2023/12/25 12:32:17;;;;;;;3.80;0.70;;;10.90;99.10;;;;;;4974427;28;20319;-71
2023/12/25 12:34:43;;;;;;;1.55;0.55;;;10.90;99.20;;;;;;4993023;28;20029;-73
2023/12/25 12:37:09;;;;;;;1.40;0.60;;;11.00;99.50;;;;;;4990500;28;20027;-70
2023/12/25 12:39:36;;;;;;;1.73;0.60;;;11.00;99.80;;;;;;4994845;28;20018;-73
2023/12/25 12:42:12;;;;;;;1.83;0.55;;;11.00;99.90;;;;;;4982970;28;20133;-73
2023/12/25 12:44:38;;;;;;;1.33;0.80;;;11.00;99.90;;;;;;4987321;28;20131;-72
2023/12/25 12:47:06;;;;;;;1.13;0.60;;;11.00;99.90;;;;;;4982441;28;20628;-72
2023/12/25 12:49:32;;;;;;;2.30;0.70;;;11.00;99.90;;;;;;5001017;23;20119;-70
2023/12/25 12:51:58;;;;;;;1.50;0.80;;;11.00;99.90;;;;;;4992195;28;20499;-70